Time;durP1;ratioP1;P1;durP2;ratioP2;P2;SDS_P1;SDS_P2;PMS_P1;PMS_P2;Temp;Humidity;BMP_temperature;BMP_pressure;BME280_temperature;BME280_humidity;BME280_pressure;Samples;Min_cycle;Max_cycle;Signal;HPM_P1;HPM_P2
2023/01/21 04:21:05;;;;;;;;;23.25;22.50;;;;;5.09;61.35;101919.72;5444740;22;46122;-57
2023/01/21 04:23:31;;;;;;;;;24.75;23.50;;;;;5.11;61.20;101936.31;4955064;28;45864;-57
2023/01/21 04:25:56;;;;;;;;;30.25;23.75;;;;;5.07;61.31;101931.84;4977285;28;45593;-57
2023/01/21 04:28:22;;;;;;;;;25.75;24.25;;;;;5.04;61.42;101934.38;4970851;28;45254;-57
2023/01/21 04:30:47;;;;;;;;;30.50;24.00;;;;;5.00;61.29;101936.00;4975542;28;45519;-58
2023/01/21 04:33:13;;;;;;;;;25.25;22.50;;;;;4.96;61.08;101939.38;4973454;28;45419;-57
2023/01/21 04:35:39;;;;;;;;;27.50;23.75;;;;;4.88;61.42;101935.69;4957557;28;45350;-57
2023/01/21 04:38:05;;;;;;;;;15.75;15.75;;;;;4.83;61.57;101930.31;4975955;28;45424;-57
2023/01/21 04:40:30;;;;;;;;;29.25;23.75;;;;;4.78;61.55;101939.75;4971242;28;45476;-57
2023/01/21 04:42:56;;;;;;;;;23.25;21.25;;;;;4.78;61.24;101937.13;4973311;28;45305;-58
2023/01/21 04:45:21;;;;;;;;;23.50;22.00;;;;;4.77;61.20;101937.06;4955673;28;45712;-58
2023/01/21 04:47:47;;;;;;;;;20.75;19.00;;;;;4.71;61.28;101936.06;4968333;28;45298;-58
2023/01/21 04:50:13;;;;;;;;;25.00;20.25;;;;;4.69;61.00;101942.06;4971807;28;45486;-58
2023/01/21 04:52:39;;;;;;;;;21.50;18.75;;;;;4.67;61.09;101939.41;4976003;28;45536;-57
2023/01/21 04:55:05;;;;;;;;;30.75;24.00;;;;;4.62;60.80;101933.19;4974797;28;45475;-57
2023/01/21 04:57:31;;;;;;;;;25.25;22.25;;;;;4.51;61.00;101924.19;4973678;28;45820;-58
2023/01/21 04:59:56;;;;;;;;;21.75;17.25;;;;;4.53;61.07;101939.00;4976439;28;45346;-58
2023/01/21 05:02:22;;;;;;;;;23.50;20.75;;;;;4.45;61.24;101940.47;4953431;28;45879;-58
2023/01/21 05:04:47;;;;;;;;;23.25;20.25;;;;;4.44;61.11;101943.03;4958391;28;45528;-58
2023/01/21 05:07:13;;;;;;;;;27.50;21.00;;;;;4.38;61.09;101946.38;4973519;28;45464;-58
2023/01/21 05:09:39;;;;;;;;;22.25;19.25;;;;;4.36;60.73;101943.69;4957052;28;46106;-58
2023/01/21 05:12:05;;;;;;;;;24.00;22.50;;;;;4.34;60.99;101960.09;4975524;28;45268;-58
2023/01/21 05:14:30;;;;;;;;;22.75;22.50;;;;;4.28;61.08;101946.91;4972040;28;45603;-58
2023/01/21 05:16:56;;;;;;;;;23.75;21.75;;;;;4.23;60.77;101955.44;4962373;28;45646;-58
2023/01/21 05:19:22;;;;;;;;;26.00;23.25;;;;;4.24;61.04;101953.75;4963756;28;45374;-58
2023/01/21 05:21:47;;;;;;;;;24.75;21.25;;;;;4.22;60.70;101953.66;4963656;28;45414;-58
2023/01/21 05:24:12;;;;;;;;;26.25;23.75;;;;;4.17;60.74;101959.59;4964156;28;45366;-57
2023/01/21 05:26:37;;;;;;;;;22.75;22.50;;;;;4.15;60.92;101967.34;4963700;28;45321;-58
2023/01/21 05:29:03;;;;;;;;;24.75;22.75;;;;;4.14;60.68;101975.97;4963703;28;46717;-58
2023/01/21 05:31:28;;;;;;;;;28.25;26.50;;;;;4.11;60.83;101967.19;4963527;28;45227;-57
2023/01/21 05:33:55;;;;;;;;;28.50;25.00;;;;;4.09;60.81;101971.44;4964089;28;45310;-58
2023/01/21 05:36:21;;;;;;;;;27.25;24.75;;;;;4.09;60.33;101982.75;4962368;28;45557;-57
2023/01/21 05:38:46;;;;;;;;;28.50;26.00;;;;;4.03;61.24;101977.34;4963584;28;46054;-58
2023/01/21 05:41:11;;;;;;;;;27.00;22.00;;;;;4.01;60.74;101990.31;4963221;28;45327;-57
2023/01/21 05:43:37;;;;;;;;;28.75;23.75;;;;;4.01;60.67;101995.53;4963870;28;45367;-58
2023/01/21 05:46:02;;;;;;;;;29.75;25.50;;;;;3.98;60.71;101995.41;4962784;28;45674;-58
2023/01/21 05:48:28;;;;;;;;;31.00;26.00;;;;;3.95;61.16;101994.41;4963593;28;45314;-58
2023/01/21 05:50:53;;;;;;;;;31.75;25.50;;;;;3.94;60.67;102003.94;4946064;28;45424;-58
2023/01/21 05:53:19;;;;;;;;;26.25;24.00;;;;;3.90;60.88;102000.34;4963628;28;45180;-58
2023/01/21 05:55:44;;;;;;;;;27.75;26.75;;;;;3.86;60.74;102005.41;4963514;28;45514;-58
2023/01/21 05:58:10;;;;;;;;;25.00;23.75;;;;;3.81;60.68;102013.06;4963458;28;45313;-58
2023/01/21 06:00:35;;;;;;;;;8.25;3.00;;;;;3.80;60.81;102018.19;4963384;28;45480;-58
2023/01/21 06:03:02;;;;;;;;;28.75;23.25;;;;;3.76;60.99;102021.53;4963168;28;45278;-58
2023/01/21 06:05:28;;;;;;;;;33.50;25.75;;;;;3.73;60.96;102019.69;4963056;28;45656;-58
2023/01/21 06:07:54;;;;;;;;;17.75;16.25;;;;;3.71;60.86;102023.97;4963423;28;46127;-58
2023/01/21 06:10:19;;;;;;;;;29.50;23.50;;;;;3.68;60.54;102021.25;4962947;28;45329;-58
2023/01/21 06:12:45;;;;;;;;;27.00;25.50;;;;;3.63;60.97;102026.28;4963150;28;45302;-58
2023/01/21 06:15:12;;;;;;;;;28.75;25.25;;;;;3.62;60.94;102031.44;4962995;28;45259;-58
2023/01/21 06:17:39;;;;;;;;;37.50;32.50;;;;;3.58;60.82;102025.25;4962821;28;46216;-58
2023/01/21 06:20:05;;;;;;;;;30.00;25.25;;;;;3.54;61.15;102037.25;4962691;28;45223;-58
2023/01/21 06:22:30;;;;;;;;;31.00;25.50;;;;;3.51;60.77;102038.84;4963010;28;45386;-58
2023/01/21 06:24:56;;;;;;;;;28.75;25.00;;;;;3.48;60.74;102034.44;4962912;28;45307;-58
2023/01/21 06:27:21;;;;;;;;;31.25;24.25;;;;;3.46;60.56;102037.81;4962227;28;46270;-58
2023/01/21 06:29:46;;;;;;;;;30.50;23.25;;;;;3.41;60.84;102038.53;4962725;28;45347;-58
2023/01/21 06:32:12;;;;;;;;;27.25;25.75;;;;;3.33;61.04;102026.09;4963043;28;45294;-58
2023/01/21 06:34:37;;;;;;;;;35.25;30.50;;;;;3.38;61.22;102032.34;4962797;28;45392;-58
2023/01/21 06:37:02;;;;;;;;;34.75;29.25;;;;;3.39;60.58;102044.50;4961496;28;46103;-58
2023/01/21 06:39:27;;;;;;;;;27.00;24.50;;;;;3.37;61.17;102047.06;4962592;28;45330;-58
2023/01/21 06:41:53;;;;;;;;;22.75;19.75;;;;;3.36;60.84;102047.88;4962775;28;45358;-58
2023/01/21 06:44:18;;;;;;;;;25.75;20.75;;;;;3.34;61.02;102048.66;4945273;28;45568;-58
2023/01/21 06:46:43;;;;;;;;;31.75;27.25;;;;;3.32;60.61;102052.91;4957118;28;46437;-58
2023/01/21 06:49:09;;;;;;;;;34.25;26.25;;;;;3.31;60.93;102058.91;4962359;28;45457;-58
2023/01/21 06:51:34;;;;;;;;;35.50;31.50;;;;;3.25;61.30;102054.41;4962756;28;45404;-58
2023/01/21 06:54:00;;;;;;;;;41.25;33.00;;;;;3.26;61.31;102058.78;4962616;28;45318;-57
2023/01/21 06:56:25;;;;;;;;;38.75;29.75;;;;;3.23;61.20;102071.63;4962212;28;46108;-57
2023/01/21 06:58:50;;;;;;;;;41.50;34.25;;;;;3.19;60.88;102064.56;4962440;28;45429;-57
2023/01/21 07:01:16;;;;;;;;;33.25;31.25;;;;;3.15;61.01;102076.56;4962326;28;45287;-57
2023/01/21 07:03:43;;;;;;;;;37.75;30.00;;;;;3.13;61.01;102070.41;4962744;28;46128;-57
2023/01/21 07:06:08;;;;;;;;;33.50;31.25;;;;;3.12;61.51;102076.44;4945793;28;47006;-57
2023/01/21 07:08:34;;;;;;;;;40.50;36.75;;;;;3.13;60.95;102085.97;4945095;28;45335;-57
2023/01/21 07:10:59;;;;;;;;;35.00;32.75;;;;;3.13;61.22;102082.50;4962241;28;45595;-57
2023/01/21 07:13:24;;;;;;;;;38.50;33.75;;;;;3.15;61.40;102099.06;4962123;28;45540;-58
2023/01/21 07:15:50;;;;;;;;;41.25;32.25;;;;;3.14;61.54;102100.75;4962308;28;45304;-57
2023/01/21 07:18:15;;;;;;;;;42.25;39.00;;;;;3.13;61.34;102109.38;4962069;28;45554;-58
2023/01/21 07:20:41;;;;;;;;;38.75;34.50;;;;;3.14;61.56;102112.88;4962918;28;45632;-58
2023/01/21 07:23:07;;;;;;;;;35.50;29.00;;;;;3.17;61.53;102118.16;4962231;28;45474;-57
2023/01/21 07:25:34;;;;;;;;;41.25;36.25;;;;;3.17;61.40;102120.75;4944777;28;47843;-58
2023/01/21 07:28:00;;;;;;;;;43.25;34.75;;;;;3.18;61.77;102133.84;4944988;28;45493;-58
2023/01/21 07:30:26;;;;;;;;;45.25;38.00;;;;;3.17;61.33;102128.56;4925977;28;45410;-58
2023/01/21 07:32:52;;;;;;;;;38.25;34.75;;;;;3.19;61.75;102130.38;4957328;28;45138;-59
2023/01/21 07:35:17;;;;;;;;;37.75;34.00;;;;;3.19;61.48;102138.19;4961955;28;45336;-59
2023/01/21 07:37:43;;;;;;;;;40.50;31.75;;;;;3.16;61.85;102135.47;4962563;28;44727;-59
2023/01/21 07:40:09;;;;;;;;;37.25;33.75;;;;;3.18;61.91;102131.25;4946228;28;45781;-59
2023/01/21 07:42:35;;;;;;;;;38.75;33.00;;;;;3.16;61.40;102138.06;4961781;28;45260;-59
2023/01/21 07:45:02;;;;;;;;;42.75;32.50;;;;;3.14;61.42;102139.72;4944723;28;46601;-59
2023/01/21 07:47:28;;;;;;;;;44.75;36.00;;;;;3.14;61.62;102144.91;4942304;28;45424;-59
2023/01/21 07:49:53;;;;;;;;;36.75;30.25;;;;;3.13;61.37;102140.53;4944785;28;45339;-59
2023/01/21 07:52:19;;;;;;;;;42.50;37.25;;;;;3.15;61.59;102148.41;4944433;28;45495;-59
2023/01/21 07:54:46;;;;;;;;;37.75;31.50;;;;;3.10;61.49;102161.22;4961886;28;45345;-59
2023/01/21 07:57:12;;;;;;;;;42.00;35.75;;;;;3.09;61.78;102155.16;4961688;28;45313;-59
2023/01/21 07:59:37;;;;;;;;;40.25;37.25;;;;;3.09;61.96;102162.94;4944617;28;45197;-59
2023/01/21 08:02:03;;;;;;;;;42.75;32.00;;;;;3.04;61.51;102166.16;4943827;28;45263;-59
2023/01/21 08:04:28;;;;;;;;;42.50;35.00;;;;;3.04;61.42;102164.44;4961719;28;46223;-59
2023/01/21 08:06:55;;;;;;;;;36.75;34.00;;;;;3.04;61.66;102164.44;4945114;28;45530;-59
2023/01/21 08:09:24;;;;;;;;;39.75;34.75;;;;;3.04;61.58;102173.97;4962826;28;45467;-58
2023/01/21 08:11:51;;;;;;;;;50.75;34.75;;;;;3.02;61.82;102175.59;4961437;28;45230;-59
2023/01/21 08:14:16;;;;;;;;;44.00;38.00;;;;;2.99;61.69;102173.75;4963347;28;46153;-59
2023/01/21 08:16:42;;;;;;;;;48.00;38.50;;;;;3.01;61.93;102185.13;4962828;28;45398;-59
2023/01/21 08:19:07;;;;;;;;;31.25;27.25;;;;;3.04;61.88;102184.34;4944860;28;45281;-58
2023/01/21 08:21:33;;;;;;;;;44.50;36.00;;;;;3.01;61.73;102189.44;4964962;28;45426;-59
2023/01/21 08:23:59;;;;;;;;;47.75;37.50;;;;;2.97;61.53;102185.81;4964506;28;45222;-59
2023/01/21 08:26:24;;;;;;;;;36.25;33.25;;;;;2.95;61.86;102192.66;4963795;28;45169;-60
2023/01/21 08:28:52;;;;;;;;;49.00;37.75;;;;;2.91;61.52;102191.66;4956156;28;45272;-59
2023/01/21 08:31:18;;;;;;;;;38.00;34.75;;;;;2.97;61.60;102196.22;4944616;28;45475;-59
2023/01/21 08:33:43;;;;;;;;;55.00;38.50;;;;;2.98;61.83;102207.47;4969933;28;45444;-59
2023/01/21 08:36:09;;;;;;;;;46.25;41.00;;;;;2.98;62.11;102203.19;4955616;28;45391;-59
2023/01/21 08:38:35;;;;;;;;;47.00;38.75;;;;;3.00;61.97;102206.72;4928848;28;45379;-59
2023/01/21 08:41:01;;;;;;;;;38.25;36.50;;;;;3.02;61.79;102209.38;4962407;28;45509;-59
2023/01/21 08:43:26;;;;;;;;;50.25;41.00;;;;;3.04;61.66;102206.00;4961290;28;45296;-59
2023/01/21 08:45:55;;;;;;;;;52.25;38.75;;;;;3.06;62.04;102214.75;4962457;28;45298;-60
2023/01/21 08:48:21;;;;;;;;;46.00;38.00;;;;;3.08;61.58;102225.19;4942309;28;45365;-58
2023/01/21 08:50:46;;;;;;;;;43.50;38.00;;;;;3.11;61.92;102232.22;4960442;28;45354;-58
2023/01/21 08:53:11;;;;;;;;;37.25;35.75;;;;;3.14;61.53;102229.78;4960697;28;46203;-58
2023/01/21 08:55:37;;;;;;;;;53.75;43.25;;;;;3.16;61.78;102239.41;4945066;28;45586;-58
2023/01/21 08:58:02;;;;;;;;;50.00;35.75;;;;;3.21;61.79;102237.88;4960930;28;45334;-61
2023/01/21 09:00:28;;;;;;;;;53.75;41.25;;;;;3.22;62.10;102241.34;4960593;28;45551;-62
2023/01/21 09:02:54;;;;;;;;;54.00;41.75;;;;;3.25;61.77;102239.75;4960633;28;46224;-63
2023/01/21 09:05:20;;;;;;;;;52.75;40.50;;;;;3.27;61.83;102236.34;4943855;28;45397;-58
2023/01/21 09:07:45;;;;;;;;;47.25;40.00;;;;;3.34;62.01;102238.38;4960710;28;45306;-58
2023/01/21 09:10:11;;;;;;;;;50.50;41.00;;;;;3.39;61.71;102234.22;4960428;28;45341;-58
2023/01/21 09:12:39;;;;;;;;;52.00;40.25;;;;;3.45;61.76;102234.47;4960451;28;45312;-58
2023/01/21 09:15:05;;;;;;;;;43.25;39.25;;;;;3.51;62.03;102232.13;4942841;28;45841;-68
2023/01/21 09:17:30;;;;;;;;;50.25;40.75;;;;;3.58;62.13;102241.94;4943140;28;45478;-66
2023/01/21 09:19:56;;;;;;;;;46.25;40.00;;;;;3.64;61.94;102241.25;4960251;28;45433;-66
2023/01/21 09:22:21;;;;;;;;;48.25;37.50;;;;;3.68;62.07;102242.28;4942885;28;47132;-67
2023/01/21 09:24:46;;;;;;;;;53.50;41.25;;;;;3.72;61.97;102242.47;4942787;28;45490;-58
2023/01/21 09:27:12;;;;;;;;;46.00;39.75;;;;;3.80;61.74;102254.84;4960219;28;45234;-68
2023/01/21 09:29:37;;;;;;;;;55.50;39.25;;;;;3.85;61.88;102262.00;4960328;28;45266;-68
2023/01/21 09:32:04;;;;;;;;;53.75;41.50;;;;;3.83;61.67;102260.19;4942637;28;46229;-57
2023/01/21 09:34:30;;;;;;;;;51.25;38.75;;;;;3.83;62.17;102267.97;4960084;28;45255;-56
2023/01/21 09:36:55;;;;;;;;;52.00;37.50;;;;;3.85;61.85;102279.31;4960395;28;45501;-56
2023/01/21 09:39:20;;;;;;;;;56.25;44.00;;;;;3.88;62.29;102277.72;4960091;28;45519;-58
2023/01/21 09:41:51;;;;;;;;;50.00;39.50;;;;;3.90;62.11;102290.81;4959811;28;45293;-60
2023/01/21 09:44:29;;;;;;;;;51.50;41.75;;;;;3.94;62.14;102297.88;4942671;28;45504;-60
2023/01/21 09:47:05;;;;;;;;;52.00;38.50;;;;;3.98;61.95;102304.09;4960023;28;45374;-56
2023/01/21 09:49:45;;;;;;;;;42.75;39.00;;;;;4.00;61.87;102305.00;4957559;28;45303;-57
2023/01/21 09:52:28;;;;;;;;;51.00;43.25;;;;;4.01;62.13;102319.81;4959995;28;46303;-57
2023/01/21 09:54:55;;;;;;;;;45.00;39.25;;;;;4.03;62.25;102321.63;4959956;28;45378;-58
2023/01/21 09:57:45;;;;;;;;;48.25;39.50;;;;;4.07;61.99;102312.22;4959898;28;45314;-57
2023/01/21 10:00:28;;;;;;;;;42.25;38.50;;;;;4.12;61.91;102328.91;4943919;28;45557;-47
2023/01/21 10:03:07;;;;;;;;;43.50;39.00;;;;;4.18;62.07;102325.66;4956314;28;46389;-47
2023/01/21 10:05:51;;;;;;;;;51.25;39.25;;;;;4.15;62.20;102323.81;4959894;28;45399;-52
2023/01/21 10:08:22;;;;;;;;;45.50;39.50;;;;;4.20;62.16;102339.59;4956441;28;45507;-51
2023/01/21 10:10:59;;;;;;;;;45.75;40.00;;;;;4.22;62.01;102328.41;4963013;28;45684;-52
2023/01/21 10:13:39;;;;;;;;;48.75;40.25;;;;;4.23;62.16;102345.81;4957885;28;46236;-51
2023/01/21 10:16:11;;;;;;;;;46.50;38.25;;;;;4.26;61.80;102324.22;4958939;28;45421;-52
2023/01/21 10:18:41;;;;;;;;;53.50;40.75;;;;;4.27;62.23;102330.31;4961940;28;45302;-48
2023/01/21 10:21:28;;;;;;;;;56.50;42.75;;;;;4.34;61.77;102342.72;4945165;28;45563;-52
2023/01/21 10:24:22;;;;;;;;;44.50;36.75;;;;;4.36;62.11;102346.28;4949981;28;46838;-48
2023/01/21 10:26:49;;;;;;;;;42.25;38.25;;;;;4.39;61.96;102346.41;4930762;28;45774;-51
2023/01/21 10:29:17;;;;;;;;;50.75;38.50;;;;;4.46;62.04;102343.16;4960729;28;45386;-53
2023/01/21 10:31:51;;;;;;;;;47.50;39.75;;;;;4.41;62.64;102339.50;4970057;28;45430;-51
2023/01/21 10:34:18;;;;;;;;;51.00;38.50;;;;;4.44;62.31;102339.66;4954492;28;46385;-51
2023/01/21 10:36:55;;;;;;;;;51.75;40.75;;;;;4.50;62.14;102339.88;4970453;28;45368;-53
2023/01/21 10:39:54;;;;;;;;;48.50;39.50;;;;;4.56;61.95;102344.41;4968093;28;45429;-50
2023/01/21 10:42:46;;;;;;;;;41.75;37.50;;;;;4.56;61.88;102340.06;4970677;28;45394;-51
2023/01/21 10:45:22;;;;;;;;;45.50;37.50;;;;;4.67;61.72;102342.19;4971013;28;45457;-52
2023/01/21 10:48:26;;;;;;;;;52.25;42.25;;;;;4.70;61.82;102350.09;4970265;28;45434;-52
2023/01/21 10:51:08;;;;;;;;;42.50;37.75;;;;;4.75;61.72;102351.16;4968510;28;45660;-51
2023/01/21 10:54:02;;;;;;;;;43.25;36.50;;;;;4.84;61.92;102350.59;4967137;28;45715;-50
2023/01/21 10:56:40;;;;;;;;;45.75;36.25;;;;;4.95;61.65;102353.59;4968968;28;47193;-51
2023/01/21 10:59:12;;;;;;;;;47.25;39.75;;;;;5.04;61.93;102353.88;4968094;28;45469;-59
2023/01/21 11:01:45;;;;;;;;;45.25;36.25;;;;;5.11;61.60;102355.88;4970375;28;45288;-59
2023/01/21 11:04:18;;;;;;;;;45.50;37.00;;;;;5.16;61.64;102353.44;4970032;28;45394;-60
2023/01/21 11:06:53;;;;;;;;;46.25;40.00;;;;;5.25;61.78;102358.06;4966130;28;45430;-49
2023/01/21 11:09:18;;;;;;;;;44.75;39.00;;;;;5.32;61.53;102360.94;4970498;28;45490;-52
2023/01/21 11:11:45;;;;;;;;;40.00;30.50;;;;;5.36;61.71;102356.72;4971263;28;45525;-54
2023/01/21 11:14:10;;;;;;;;;51.50;38.00;;;;;5.47;61.63;102363.16;4947747;28;45487;-58
2023/01/21 11:16:44;;;;;;;;;44.00;36.00;;;;;5.58;61.73;102363.50;4947660;28;47838;-59
2023/01/21 11:19:29;;;;;;;;;44.00;36.00;;;;;5.72;61.71;102365.69;4970124;28;45442;-58
2023/01/21 11:22:05;;;;;;;;;47.25;38.75;;;;;5.79;61.89;102363.31;4971075;28;45390;-55
2023/01/21 11:24:41;;;;;;;;;49.50;41.00;;;;;5.91;61.76;102356.69;4967365;28;45457;-48
2023/01/21 11:27:20;;;;;;;;;43.75;35.25;;;;;6.03;61.44;102362.34;4968903;28;46216;-48
2023/01/21 11:29:47;;;;;;;;;46.25;40.00;;;;;6.17;61.62;102365.34;4970250;28;45619;-47
2023/01/21 11:32:19;;;;;;;;;47.00;37.00;;;;;6.31;61.34;102358.84;4970368;28;45748;-47
2023/01/21 11:34:47;;;;;;;;;48.00;37.50;;;;;6.45;61.54;102356.63;4967519;28;45343;-50
2023/01/21 11:37:25;;;;;;;;;48.25;37.00;;;;;6.66;61.36;102350.22;4968630;28;45512;-48
2023/01/21 11:39:54;;;;;;;;;41.00;35.00;;;;;6.83;61.60;102358.53;4968303;28;45453;-54
2023/01/21 11:42:20;;;;;;;;;37.50;34.00;;;;;7.03;61.70;102352.94;4969713;28;45365;-50
2023/01/21 11:45:25;;;;;;;;;36.50;32.00;;;;;7.27;61.48;102347.44;4969453;28;45400;-51
2023/01/21 11:47:50;;;;;;;;;40.75;36.25;;;;;7.49;61.65;102347.13;4969151;28;45492;-54
2023/01/21 11:50:25;;;;;;;;;42.25;36.00;;;;;7.71;61.59;102359.84;4967418;28;45572;-57
2023/01/21 11:53:05;;;;;;;;;41.00;32.50;;;;;7.95;61.50;102351.69;4967249;28;45290;-54
2023/01/21 11:55:36;;;;;;;;;40.50;34.00;;;;;8.15;60.86;102344.28;4968769;28;45497;-55
2023/01/21 11:58:02;;;;;;;;;38.25;31.25;;;;;8.37;60.97;102350.81;4969815;28;45587;-54
2023/01/21 12:00:35;;;;;;;;;34.25;31.50;;;;;8.54;60.96;102342.47;4967986;28;45465;-52
2023/01/21 12:03:04;;;;;;;;;38.00;34.00;;;;;8.74;61.15;102353.31;4968143;28;45437;-54
2023/01/21 12:05:37;;;;;;;;;32.00;28.50;;;;;8.93;60.90;102342.34;4952507;28;45584;-51
2023/01/21 12:08:05;;;;;;;;;39.25;33.25;;;;;9.10;60.88;102363.59;4966541;28;46286;-52
2023/01/21 12:10:43;;;;;;;;;32.75;29.25;;;;;9.21;61.24;102348.06;4967160;28;45680;-53
2023/01/21 12:13:20;;;;;;;;;36.00;30.00;;;;;9.36;60.74;102347.44;4970452;28;45438;-50
2023/01/21 12:16:31;;;;;;;;;35.50;31.75;;;;;9.50;60.75;102339.78;4970611;28;45480;-50
2023/01/21 12:19:06;;;;;;;;;32.75;28.00;;;;;9.58;60.56;102350.41;4965756;28;45752;-51
2023/01/21 12:21:37;;;;;;;;;38.25;33.00;;;;;9.69;60.29;102343.56;4967732;28;45621;-51
2023/01/21 12:24:27;;;;;;;;;36.50;32.50;;;;;9.82;60.21;102333.25;4969946;28;45569;-49
2023/01/21 12:27:20;;;;;;;;;33.25;28.25;;;;;9.93;60.10;102336.94;4965592;28;45586;-48
2023/01/21 12:29:55;;;;;;;;;46.25;35.50;;;;;10.01;60.34;102331.78;4967604;28;46493;-56
2023/01/21 12:32:26;;;;;;;;;38.75;31.50;;;;;10.11;60.09;102332.78;4948256;28;45517;-49
2023/01/21 12:35:06;;;;;;;;;38.50;32.75;;;;;10.14;60.44;102333.72;4959394;28;45526;-49
2023/01/21 12:37:37;;;;;;;;;31.00;29.75;;;;;10.22;59.99;102325.91;4961094;28;45329;-51
2023/01/21 12:40:15;;;;;;;;;38.25;33.25;;;;;10.24;60.19;102324.22;4960213;28;45336;-46
2023/01/21 12:42:47;;;;;;;;;32.50;30.00;;;;;10.25;60.05;102318.97;4960621;28;45332;-47
2023/01/21 12:45:18;;;;;;;;;36.00;33.25;;;;;10.29;59.71;102327.78;4948207;28;45439;-49
2023/01/21 12:47:50;;;;;;;;;39.75;33.75;;;;;10.24;59.92;102324.22;4960406;28;45229;-48
2023/01/21 12:50:21;;;;;;;;;38.25;34.00;;;;;10.32;59.54;102325.16;4961294;28;47385;-48
2023/01/21 12:52:59;;;;;;;;;36.25;31.75;;;;;10.31;59.50;102312.88;4967306;28;45601;-47
2023/01/21 12:55:52;;;;;;;;;41.00;34.00;;;;;10.40;59.30;102331.44;4958390;28;45457;-49
2023/01/21 12:58:21;;;;;;;;;32.75;31.75;;;;;10.46;58.91;102324.50;4941693;28;45539;-54
2023/01/21 13:00:49;;;;;;;;;35.25;33.00;;;;;10.49;58.97;102324.50;4947342;28;46145;-59
2023/01/21 13:03:20;;;;;;;;;38.25;32.25;;;;;10.51;58.95;102325.44;4947794;28;45498;-52
2023/01/21 13:06:20;;;;;;;;;33.25;29.00;;;;;10.57;59.01;102330.75;4960489;28;45593;-57
2023/01/21 13:08:52;;;;;;;;;40.00;32.75;;;;;10.58;58.88;102327.25;4960489;28;45374;-53
2023/01/21 13:11:22;;;;;;;;;34.25;29.50;;;;;10.63;58.78;102328.19;4960064;28;45445;-53
2023/01/21 13:14:12;;;;;;;;;38.75;31.50;;;;;10.69;58.50;102327.38;4960391;28;45349;-50
2023/01/21 13:16:47;;;;;;;;;38.50;31.75;;;;;10.77;58.61;102335.31;4943021;28;45426;-54
2023/01/21 13:19:14;;;;;;;;;37.50;32.00;;;;;10.82;58.75;102337.16;4962332;28;45571;-51
2023/01/21 13:21:55;;;;;;;;;32.50;31.25;;;;;10.93;58.50;102337.28;4962944;28;45413;-52
2023/01/21 13:24:53;;;;;;;;;34.75;31.75;;;;;11.06;58.28;102338.25;4948082;28;45590;-52
2023/01/21 13:27:30;;;;;;;;;35.75;30.50;;;;;11.18;58.25;102334.84;4959356;28;45262;-49
2023/01/21 13:29:58;;;;;;;;;32.25;29.75;;;;;11.30;58.06;102337.59;4959791;28;46493;-52
2023/01/21 13:32:42;;;;;;;;;36.00;28.25;;;;;11.36;58.19;102335.00;4960820;28;46378;-49
2023/01/21 13:35:32;;;;;;;;;35.75;31.50;;;;;11.49;57.98;102337.75;4959830;28;45396;-48
2023/01/21 13:38:19;;;;;;;;;32.25;27.50;;;;;11.64;57.81;102332.56;4961470;28;45327;-52
2023/01/21 13:41:09;;;;;;;;;32.00;29.75;;;;;11.77;57.77;102333.53;4964220;28;45338;-49
2023/01/21 13:44:18;;;;;;;;;37.50;31.75;;;;;11.92;57.81;102337.13;4963178;28;45407;-50
2023/01/21 13:47:14;;;;;;;;;35.00;26.75;;;;;12.08;57.84;102338.16;4948200;28;45476;-49
2023/01/21 13:49:57;;;;;;;;;27.00;25.50;;;;;12.26;57.83;102343.47;4966037;28;45493;-50
2023/01/21 13:52:54;;;;;;;;;24.25;21.75;;;;;12.45;57.75;102339.19;4955870;28;45314;-45
2023/01/21 13:55:44;;;;;;;;;26.50;21.00;;;;;12.67;57.57;102349.78;4946726;28;46133;-45
2023/01/21 13:58:14;;;;;;;;;28.75;27.25;;;;;12.90;57.06;102348.97;4950175;28;45390;-46
2023/01/21 14:00:45;;;;;;;;;30.00;27.50;;;;;13.09;57.41;102353.38;4950734;28;45515;-50
2023/01/21 14:03:29;;;;;;;;;32.75;27.00;;;;;13.27;57.40;102356.91;4941839;28;45554;-49
2023/01/21 14:06:14;;;;;;;;;26.75;24.50;;;;;13.46;56.96;102342.84;4958473;28;45354;-51
2023/01/21 14:08:49;;;;;;;;;26.75;23.00;;;;;13.67;57.18;102348.97;4962732;28;45402;-53
2023/01/21 14:11:30;;;;;;;;;25.00;24.75;;;;;13.89;56.86;102346.31;4962865;28;45368;-51
2023/01/21 14:14:17;;;;;;;;;33.75;29.00;;;;;14.08;56.59;102341.84;4963008;28;45339;-55
2023/01/21 14:17:02;;;;;;;;;31.00;25.50;;;;;14.26;56.68;102355.00;4958230;28;45747;-50
2023/01/21 14:19:35;;;;;;;;;24.50;24.50;;;;;14.44;57.01;102361.97;4962976;28;45463;-49
2023/01/21 14:22:26;;;;;;;;;31.00;26.50;;;;;14.63;56.42;102362.75;4962637;28;45513;-50
2023/01/21 14:24:57;;;;;;;;;26.25;22.25;;;;;14.79;56.66;102354.75;4962877;28;45585;-51
2023/01/21 14:27:53;;;;;;;;;26.75;24.25;;;;;14.97;56.67;102366.13;4962388;28;46196;-51
2023/01/21 14:30:37;;;;;;;;;20.75;19.50;;;;;15.15;56.56;102365.13;4954853;28;45461;-50
2023/01/21 14:33:12;;;;;;;;;24.25;21.00;;;;;15.28;56.26;102362.38;4956322;28;45271;-51
2023/01/21 14:35:48;;;;;;;;;31.25;25.50;;;;;15.41;56.12;102359.63;4945243;28;45445;-51
2023/01/21 14:39:04;;;;;;;;;22.25;19.00;;;;;15.58;55.97;102359.47;4944361;28;46246;-51
2023/01/21 14:42:10;;;;;;;;;26.50;25.00;;;;;15.73;55.88;102367.25;4955492;28;45537;-52
2023/01/21 14:44:40;;;;;;;;;26.75;21.25;;;;;15.84;55.73;102377.78;4929544;28;45432;-55
2023/01/21 14:47:13;;;;;;;;;25.50;15.25;;;;;15.90;55.59;102367.13;4962021;28;45537;-45
2023/01/21 14:49:41;;;;;;;;;25.50;24.75;;;;;15.98;55.29;102368.81;4961636;28;47429;-50
2023/01/21 14:52:12;;;;;;;;;24.75;23.50;;;;;16.06;55.25;102385.50;4962463;28;45702;-48
2023/01/21 14:54:42;;;;;;;;;23.25;22.00;;;;;16.06;54.90;102377.56;4962303;28;45334;-49
2023/01/21 14:57:25;;;;;;;;;25.50;22.50;;;;;16.07;54.94;102379.31;4959848;28;45395;-47
2023/01/21 14:59:52;;;;;;;;;27.50;21.50;;;;;16.08;54.64;102381.06;4946351;28;45492;-50
2023/01/21 15:02:28;;;;;;;;;24.50;21.50;;;;;16.08;54.69;102378.44;4954488;28;45264;-45
2023/01/21 15:04:58;;;;;;;;;22.75;20.00;;;;;16.02;54.54;102375.84;4950175;28;45383;-49
2023/01/21 15:07:29;;;;;;;;;29.00;25.75;;;;;15.95;54.33;102380.34;4961858;28;45604;-50
2023/01/21 15:09:58;;;;;;;;;23.75;22.00;;;;;15.90;54.21;102379.50;4961995;28;46187;-51
2023/01/21 15:12:30;;;;;;;;;27.50;22.50;;;;;15.83;53.85;102381.31;4961880;28;45287;-50
2023/01/21 15:14:58;;;;;;;;;31.00;25.75;;;;;15.74;54.26;102386.69;4962303;28;45399;-49
2023/01/21 15:17:56;;;;;;;;;21.50;21.00;;;;;15.55;54.09;102386.00;4962245;28;45267;-53
2023/01/21 15:20:40;;;;;;;;;30.25;25.25;;;;;15.38;53.87;102392.31;4961449;28;45365;-53
2023/01/21 15:23:29;;;;;;;;;27.25;24.00;;;;;15.14;54.01;102384.56;4961916;28;45514;-51
2023/01/21 15:26:06;;;;;;;;;28.25;26.50;;;;;14.92;54.00;102380.28;4949725;28;45327;-60
2023/01/21 15:28:40;;;;;;;;;23.75;23.50;;;;;14.68;53.79;102385.69;4959430;28;45305;-47
2023/01/21 15:31:19;;;;;;;;;28.00;26.25;;;;;14.45;54.13;102389.28;4959629;28;46032;-52
2023/01/21 15:33:49;;;;;;;;;30.00;25.75;;;;;14.18;54.00;102385.00;4947670;28;45464;-48
2023/01/21 15:36:28;;;;;;;;;32.00;27.25;;;;;13.94;54.07;102392.97;4962571;28;45684;-49
2023/01/21 15:38:59;;;;;;;;;34.25;28.00;;;;;13.72;53.76;102405.38;4969003;28;45420;-50
2023/01/21 15:41:32;;;;;;;;;29.00;24.25;;;;;13.51;54.02;102408.88;4967791;28;46157;-53
2023/01/21 15:44:32;;;;;;;;;30.50;27.00;;;;;13.26;53.48;102406.19;4970879;28;45408;-51
2023/01/21 15:47:43;;;;;;;;;30.75;28.25;;;;;13.07;53.46;102412.31;4954280;28;45214;-53
2023/01/21 15:50:35;;;;;;;;;33.25;29.00;;;;;12.82;54.01;102410.50;4951804;28;45614;-50
2023/01/21 15:53:28;;;;;;;;;36.50;30.25;;;;;12.64;53.32;102415.69;4968279;28;46140;-51
2023/01/21 15:56:08;;;;;;;;;34.75;30.00;;;;;12.41;53.42;102426.16;4961325;28;45320;-52
2023/01/21 15:59:29;;;;;;;;;30.50;25.25;;;;;12.16;53.45;102421.63;4959504;28;45977;-50